createdAt,value
2022-10-12T00:01:29.800Z,5.67
2022-10-12T00:03:51.753Z,5.03
2022-10-12T00:06:18.878Z,2.83
2022-10-12T00:08:41.803Z,2.10
2022-10-12T00:11:04.534Z,2.37
2022-10-12T00:13:26.408Z,2.00
2022-10-12T00:15:47.970Z,2.07
2022-10-12T00:18:09.455Z,2.13
2022-10-12T00:20:30.993Z,2.03
2022-10-12T00:22:52.450Z,2.10
2022-10-12T00:25:13.941Z,2.03
2022-10-12T00:27:35.869Z,1.97
2022-10-12T00:29:57.517Z,2.03
2022-10-12T00:32:19.003Z,2.20
2022-10-12T00:34:40.467Z,2.10
2022-10-12T00:37:01.965Z,1.90
2022-10-12T00:39:23.442Z,1.83
2022-10-12T00:41:45.077Z,1.60
2022-10-12T00:44:40.596Z,1.93
2022-10-12T00:47:25.256Z,2.03
2022-10-12T00:50:15.106Z,1.80
2022-10-12T00:52:46.910Z,2.33
2022-10-12T00:55:10.477Z,2.23
2022-10-12T00:57:32.017Z,2.27
2022-10-12T01:00:05.567Z,2.10
2022-10-12T01:02:29.800Z,2.03
2022-10-12T01:04:51.742Z,2.20
2022-10-12T01:07:14.217Z,2.23
2022-10-12T01:09:35.685Z,2.23
2022-10-12T01:11:57.988Z,2.00
2022-10-12T01:14:19.951Z,1.93
2022-10-12T01:16:54.988Z,1.90
2022-10-12T01:19:28.438Z,1.90
2022-10-12T01:22:00.986Z,2.20
2022-10-12T01:24:38.602Z,1.90
2022-10-12T01:27:24.834Z,2.03
2022-10-12T01:30:06.349Z,1.80
2022-10-12T01:32:54.660Z,2.03
2022-10-12T01:35:22.550Z,1.47
2022-10-12T01:38:23.593Z,1.70
2022-10-12T01:40:55.406Z,1.70
2022-10-12T01:43:23.615Z,1.83
2022-10-12T01:45:45.109Z,1.90
2022-10-12T01:48:07.530Z,1.83
2022-10-12T01:50:43.769Z,1.73
2022-10-12T01:53:13.795Z,1.90
2022-10-12T01:55:52.828Z,1.60
2022-10-12T01:58:34.460Z,1.50
2022-10-12T02:01:29.677Z,2.00
2022-10-12T02:04:00.690Z,1.97
2022-10-12T02:06:28.670Z,2.73
2022-10-12T02:09:26.306Z,1.70
2022-10-12T02:11:52.271Z,1.87
2022-10-12T02:14:21.277Z,1.90
2022-10-12T02:16:49.860Z,2.20
2022-10-12T02:19:17.224Z,3.03
2022-10-12T02:21:40.243Z,2.20
2022-10-12T02:24:06.505Z,1.97
2022-10-12T02:26:29.995Z,1.60
2022-10-12T02:28:51.666Z,1.60
2022-10-12T02:31:37.934Z,1.80
2022-10-12T02:34:12.987Z,2.47
2022-10-12T02:36:40.343Z,2.77
2022-10-12T02:39:09.460Z,2.00
2022-10-12T02:41:46.550Z,2.00
2022-10-12T02:44:12.765Z,1.70
2022-10-12T02:46:35.952Z,1.70
2022-10-12T02:48:59.441Z,1.90
2022-10-12T02:51:22.052Z,2.03
2022-10-12T02:53:45.197Z,1.70
2022-10-12T02:56:11.206Z,1.93
2022-10-12T02:58:32.803Z,1.90
2022-10-12T03:00:54.318Z,1.87
2022-10-12T03:03:15.878Z,1.47
2022-10-12T03:05:37.449Z,1.57
2022-10-12T03:07:58.926Z,1.50
2022-10-12T03:10:20.396Z,1.80
2022-10-12T03:12:44.386Z,2.03
2022-10-12T03:15:08.388Z,3.90
2022-10-12T03:17:29.891Z,9.67
2022-10-12T03:19:51.350Z,3.83
2022-10-12T03:22:12.855Z,4.40
2022-10-12T03:24:34.326Z,4.87
2022-10-12T03:26:55.845Z,5.07
2022-10-12T03:29:17.518Z,3.73
2022-10-12T03:31:38.998Z,3.23
2022-10-12T03:34:00.585Z,3.83
2022-10-12T03:36:22.080Z,3.60
2022-10-12T03:38:43.558Z,4.43
2022-10-12T03:41:06.841Z,5.50
2022-10-12T03:43:28.485Z,6.57
2022-10-12T03:45:49.999Z,3.30
2022-10-12T03:48:11.503Z,4.03
2022-10-12T03:50:35.033Z,3.80
2022-10-12T03:52:56.571Z,5.20
2022-10-12T03:55:18.019Z,5.37
2022-10-12T03:57:40.095Z,5.30
2022-10-12T04:00:02.111Z,5.13
2022-10-12T04:02:23.694Z,4.67
2022-10-12T04:04:45.137Z,4.73
2022-10-12T04:07:06.947Z,4.37
2022-10-12T04:09:28.404Z,4.80
2022-10-12T04:11:49.864Z,3.90
2022-10-12T04:14:11.324Z,14.97
2022-10-12T04:16:32.830Z,10.97
2022-10-12T04:18:54.316Z,11.80
2022-10-12T04:21:17.041Z,12.40
2022-10-12T04:23:38.624Z,8.63
2022-10-12T04:26:00.114Z,11.93
2022-10-12T04:28:21.607Z,17.73
2022-10-12T04:30:43.179Z,16.87
2022-10-12T04:33:05.651Z,13.97
2022-10-12T04:35:27.167Z,10.40
2022-10-12T04:37:48.632Z,9.50
2022-10-12T04:40:10.307Z,7.77
2022-10-12T04:42:31.771Z,7.87
2022-10-12T04:44:53.283Z,6.10
2022-10-12T04:47:14.737Z,5.20
2022-10-12T04:49:36.256Z,4.77
2022-10-12T04:51:57.785Z,4.97
2022-10-12T04:54:19.322Z,4.27
2022-10-12T04:56:45.412Z,3.67
2022-10-12T04:59:09.099Z,4.13
2022-10-12T05:01:30.859Z,3.63
2022-10-12T05:03:52.384Z,4.83
2022-10-12T05:06:14.068Z,5.23
2022-10-12T05:08:35.589Z,9.30
2022-10-12T05:10:59.238Z,8.20
2022-10-12T05:13:20.707Z,7.50
2022-10-12T05:15:43.214Z,8.90
2022-10-12T05:18:05.040Z,8.73
2022-10-12T05:20:26.646Z,7.10
2022-10-12T05:22:48.194Z,6.63
2022-10-12T05:25:10.037Z,5.37
2022-10-12T05:27:31.604Z,4.77
2022-10-12T05:29:53.129Z,3.97
2022-10-12T05:32:15.485Z,3.57
2022-10-12T05:34:36.961Z,5.17
2022-10-12T05:36:58.427Z,4.00
2022-10-12T05:39:19.936Z,3.40
2022-10-12T05:41:41.441Z,3.17
2022-10-12T05:44:02.923Z,2.90
2022-10-12T05:46:24.381Z,2.50
2022-10-12T05:48:45.868Z,2.50
2022-10-12T05:51:07.363Z,2.73
2022-10-12T05:53:28.893Z,2.93
2022-10-12T05:55:58.895Z,2.80
2022-10-12T05:58:20.406Z,2.20
2022-10-12T06:00:41.907Z,2.50
2022-10-12T06:03:03.523Z,2.73
2022-10-12T06:05:25.656Z,2.50
2022-10-12T06:07:47.116Z,3.07
2022-10-12T06:10:09.018Z,3.00
2022-10-12T06:12:30.566Z,3.03
2022-10-12T06:14:52.648Z,2.70
2022-10-12T06:17:14.133Z,2.20
2022-10-12T06:19:36.653Z,2.73
2022-10-12T06:21:58.546Z,2.53
2022-10-12T06:24:20.051Z,2.70
2022-10-12T06:26:41.533Z,3.00
2022-10-12T06:29:03.390Z,7.20
2022-10-12T06:31:24.877Z,10.43
2022-10-12T06:33:46.403Z,11.23
2022-10-12T06:36:07.917Z,8.80
2022-10-12T06:38:29.398Z,3.23
2022-10-12T06:40:51.012Z,3.00
2022-10-12T06:43:12.972Z,4.93
2022-10-12T06:45:34.704Z,6.33
2022-10-12T06:47:57.334Z,5.47
2022-10-12T06:50:18.879Z,7.10
2022-10-12T06:52:40.679Z,10.83
2022-10-12T06:55:02.939Z,11.67
2022-10-12T06:57:24.396Z,8.93
2022-10-12T06:59:46.035Z,7.13
2022-10-12T07:02:10.797Z,5.97
2022-10-12T07:04:32.316Z,5.87
2022-10-12T07:06:53.801Z,4.00
2022-10-12T07:09:16.853Z,4.00
2022-10-12T07:11:38.363Z,4.63
2022-10-12T07:13:59.877Z,5.67
2022-10-12T07:16:21.369Z,5.03
2022-10-12T07:18:42.818Z,6.93
2022-10-12T07:21:04.520Z,8.73
2022-10-12T07:23:26.998Z,10.10
2022-10-12T07:25:49.799Z,11.20
2022-10-12T07:28:11.311Z,9.63
2022-10-12T07:30:36.173Z,11.03
2022-10-12T07:32:57.737Z,9.57
2022-10-12T07:35:19.229Z,8.50
2022-10-12T07:37:41.228Z,8.47
2022-10-12T07:40:03.558Z,6.40
2022-10-12T07:42:25.439Z,5.10
2022-10-12T07:44:46.923Z,4.20
2022-10-12T07:47:08.420Z,3.50
2022-10-12T07:49:29.938Z,3.50
2022-10-12T07:51:51.435Z,3.77
2022-10-12T07:54:18.990Z,4.60
2022-10-12T07:56:42.156Z,4.63
2022-10-12T07:59:04.251Z,4.33
2022-10-12T08:01:29.902Z,4.37
2022-10-12T08:03:53.806Z,3.90
2022-10-12T08:06:20.063Z,4.13
2022-10-12T08:08:42.306Z,3.60
2022-10-12T08:11:04.596Z,3.30
2022-10-12T08:13:26.072Z,2.97
2022-10-12T08:15:50.817Z,2.83
2022-10-12T08:18:12.305Z,3.30
2022-10-12T08:20:33.739Z,3.03
2022-10-12T08:22:55.367Z,3.33
2022-10-12T08:25:16.814Z,2.80
2022-10-12T08:31:20.044Z,3.43
2022-10-12T08:33:41.620Z,3.60
2022-10-12T08:36:05.389Z,4.00
2022-10-12T08:38:26.850Z,3.23
2022-10-12T08:40:57.525Z,3.43
2022-10-12T08:43:34.276Z,3.63
2022-10-12T08:46:02.730Z,3.17
2022-10-12T08:48:30.353Z,3.30
2022-10-12T08:50:58.922Z,3.13
2022-10-12T08:53:26.877Z,3.00
2022-10-12T08:55:48.835Z,3.00
2022-10-12T08:58:20.682Z,3.13
2022-10-12T09:00:44.276Z,2.90
2022-10-12T09:03:37.055Z,3.00
2022-10-12T09:06:10.652Z,2.77
2022-10-12T09:08:44.913Z,3.47
2022-10-12T09:11:24.814Z,3.73
2022-10-12T09:14:24.865Z,4.40
2022-10-12T09:16:48.616Z,5.17
2022-10-12T09:19:22.011Z,4.30
2022-10-12T09:21:46.866Z,4.13
2022-10-12T09:24:19.060Z,4.47
2022-10-12T09:26:40.905Z,5.43
2022-10-12T09:29:13.291Z,5.07
2022-10-12T09:31:51.969Z,4.97
2022-10-12T09:34:16.834Z,5.20
2022-10-12T09:36:42.060Z,5.20
2022-10-12T09:39:07.434Z,5.70
2022-10-12T09:41:40.668Z,5.67
2022-10-12T09:44:04.280Z,6.23
2022-10-12T09:46:40.107Z,6.27
2022-10-12T09:49:01.654Z,5.97
2022-10-12T09:51:23.274Z,6.20
2022-10-12T09:53:49.980Z,5.73
2022-10-12T09:56:25.907Z,6.83
2022-10-12T09:58:52.363Z,6.50
2022-10-12T10:01:26.635Z,6.83
2022-10-12T10:03:52.127Z,7.27
2022-10-12T10:06:15.379Z,7.60
2022-10-12T10:08:43.234Z,8.40
2022-10-12T10:11:05.176Z,8.10
2022-10-12T10:13:29.556Z,7.40
2022-10-12T10:16:01.583Z,8.33
2022-10-12T10:18:39.093Z,7.30
2022-10-12T10:21:04.571Z,8.07
2022-10-12T10:23:31.430Z,7.63
2022-10-12T10:26:05.477Z,7.90
2022-10-12T10:28:32.518Z,7.87
2022-10-12T10:31:02.397Z,8.20
2022-10-12T10:33:23.878Z,7.83
2022-10-12T10:35:59.572Z,8.03
2022-10-12T10:38:21.087Z,8.20
2022-10-12T10:40:42.607Z,9.63
2022-10-12T10:43:07.085Z,7.60
2022-10-12T10:45:33.265Z,7.27
2022-10-12T10:48:01.402Z,7.70
2022-10-12T10:50:27.259Z,7.57
2022-10-12T10:52:57.545Z,7.38
2022-10-12T10:55:23.391Z,6.97
2022-10-12T10:58:03.335Z,6.18
2022-10-12T11:00:41.127Z,6.72
2022-10-12T11:03:34.881Z,5.68
2022-10-12T11:06:20.337Z,6.57
2022-10-12T11:08:44.441Z,7.25
2022-10-12T11:11:17.541Z,6.70
2022-10-12T11:13:44.066Z,6.60
2022-10-12T11:16:10.714Z,6.90
2022-10-12T11:18:45.027Z,7.07
2022-10-12T11:21:18.291Z,6.78
2022-10-12T11:23:51.809Z,6.15
2022-10-12T11:26:16.170Z,6.53
2022-10-12T11:28:39.175Z,6.93
2022-10-12T11:31:02.104Z,6.28
2022-10-12T11:33:35.190Z,6.45
2022-10-12T11:35:58.743Z,6.20
2022-10-12T11:38:24.254Z,6.10
2022-10-12T11:41:13.851Z,5.60
2022-10-12T11:43:47.889Z,6.18
2022-10-12T11:46:14.476Z,6.63
2022-10-12T11:49:22.629Z,6.30
2022-10-12T11:51:47.951Z,5.78
2022-10-12T11:54:36.308Z,6.15
2022-10-12T11:57:04.663Z,5.65
2022-10-12T11:59:43.405Z,6.10
2022-10-12T12:02:27.394Z,5.63
2022-10-12T12:04:49.988Z,5.82
2022-10-12T12:07:44.598Z,6.18
2022-10-12T12:10:34.880Z,5.40
2022-10-12T12:13:12.827Z,5.50
2022-10-12T12:15:34.342Z,5.72
2022-10-12T12:18:15.089Z,5.85
2022-10-12T12:20:43.050Z,5.43
2022-10-12T12:23:04.578Z,5.32
2022-10-12T12:25:31.051Z,5.35
2022-10-12T12:28:05.435Z,4.63
2022-10-12T12:30:37.131Z,5.30
2022-10-12T12:33:05.859Z,4.68
2022-10-12T12:35:38.733Z,4.72
2022-10-12T12:38:24.569Z,5.22
2022-10-12T12:40:58.182Z,4.65
2022-10-12T12:43:28.563Z,4.10
2022-10-12T12:46:11.404Z,5.18
2022-10-12T12:48:39.100Z,5.25
2022-10-12T12:51:03.239Z,5.53
2022-10-12T12:53:24.885Z,4.72
2022-10-12T12:55:52.393Z,5.72
2022-10-12T12:58:29.541Z,8.27
2022-10-12T13:01:05.243Z,7.65
2022-10-12T13:03:54.966Z,5.75
2022-10-12T13:06:41.111Z,5.82
2022-10-12T13:09:15.742Z,5.80
2022-10-12T13:12:10.898Z,5.60
2022-10-12T13:14:38.126Z,5.82
2022-10-12T13:19:56.667Z,5.20
2022-10-12T13:22:29.394Z,6.15
2022-10-12T13:24:57.189Z,6.38
2022-10-12T13:27:34.374Z,5.70
2022-10-12T13:30:15.351Z,5.90
2022-10-12T13:32:51.600Z,6.32
2022-10-12T13:35:36.742Z,6.65
2022-10-12T13:38:06.653Z,6.22
2022-10-12T13:40:37.924Z,6.20
2022-10-12T13:43:28.634Z,5.72
2022-10-12T13:45:50.554Z,6.05
2022-10-12T13:48:34.106Z,6.22
2022-10-12T13:51:03.943Z,6.47
2022-10-12T13:53:33.659Z,6.50
2022-10-12T13:56:06.023Z,6.80
2022-10-12T13:58:31.453Z,12.60
2022-10-12T14:00:53.090Z,6.38
2022-10-12T14:03:14.651Z,6.95
2022-10-12T14:05:43.957Z,6.95
2022-10-12T14:08:32.459Z,10.10
2022-10-12T14:10:57.614Z,9.68
2022-10-12T14:13:33.975Z,8.25
2022-10-12T14:15:56.715Z,9.05
2022-10-12T14:18:37.581Z,10.55
2022-10-12T14:21:19.781Z,8.98
2022-10-12T14:23:44.040Z,8.75
2022-10-12T14:26:18.697Z,9.35
2022-10-12T14:28:40.259Z,10.43
2022-10-12T14:31:01.858Z,11.50
2022-10-12T14:33:24.968Z,9.15
2022-10-12T14:35:49.233Z,7.13
2022-10-12T14:38:38.330Z,6.93
2022-10-12T14:41:28.680Z,7.55
2022-10-12T14:44:10.461Z,7.20
2022-10-12T14:46:32.394Z,6.82
2022-10-12T14:48:53.897Z,6.65
2022-10-12T14:51:18.383Z,6.55
2022-10-12T14:53:40.322Z,7.55
2022-10-12T14:56:01.768Z,6.95
2022-10-12T14:58:23.265Z,6.65
2022-10-12T15:00:45.008Z,6.22
2022-10-12T15:03:06.666Z,6.18
2022-10-12T15:05:31.839Z,6.53
2022-10-12T15:07:53.354Z,6.07
2022-10-12T15:10:16.736Z,6.00
2022-10-12T15:12:38.512Z,7.07
2022-10-12T15:15:01.759Z,6.47
2022-10-12T15:17:23.302Z,7.65
2022-10-12T15:19:46.460Z,7.57
2022-10-12T15:22:14.346Z,7.38
2022-10-12T15:24:35.840Z,6.68
2022-10-12T15:26:57.313Z,8.02
2022-10-12T15:29:18.815Z,7.75
2022-10-12T15:31:40.341Z,6.80
2022-10-12T15:34:01.905Z,5.97
2022-10-12T15:36:23.358Z,6.30
2022-10-12T15:38:44.852Z,5.95
2022-10-12T15:41:14.566Z,5.10
2022-10-12T15:43:38.215Z,5.97
2022-10-12T15:46:02.630Z,5.47
2022-10-12T15:48:24.135Z,5.65
2022-10-12T15:50:49.813Z,5.60
2022-10-12T15:53:16.554Z,4.72
2022-10-12T15:55:38.175Z,5.43
2022-10-12T15:57:59.976Z,4.90
2022-10-12T16:00:23.708Z,4.97
2022-10-12T16:02:45.589Z,5.72
2022-10-12T16:05:17.743Z,6.38
2022-10-12T16:07:39.381Z,6.50
2022-10-12T16:10:00.851Z,5.75
2022-10-12T16:12:22.349Z,5.65
2022-10-12T16:14:43.804Z,5.20
2022-10-12T16:17:05.290Z,6.05
2022-10-12T16:19:26.782Z,5.90
2022-10-12T16:21:48.542Z,5.50
2022-10-12T16:24:10.022Z,5.63
2022-10-12T16:26:31.491Z,5.80
2022-10-12T16:28:53.174Z,11.93
2022-10-12T16:31:17.794Z,11.40
2022-10-12T16:33:41.394Z,9.18
2022-10-12T16:36:08.550Z,8.88
2022-10-12T16:38:30.047Z,9.85
2022-10-12T16:40:51.560Z,9.80
2022-10-12T16:43:13.057Z,9.53
2022-10-12T16:45:34.710Z,9.25
2022-10-12T16:47:56.261Z,7.90
2022-10-12T16:50:19.332Z,7.77
2022-10-12T16:52:40.828Z,7.00
2022-10-12T16:55:02.358Z,7.57
2022-10-12T16:57:24.139Z,7.03
2022-10-12T16:59:46.656Z,7.23
2022-10-12T17:02:11.109Z,7.03
2022-10-12T17:04:33.175Z,7.00
2022-10-12T17:06:54.986Z,6.83
2022-10-12T17:09:16.557Z,7.57
2022-10-12T17:11:39.867Z,7.60
2022-10-12T17:14:03.908Z,11.10
2022-10-12T17:16:43.695Z,9.37
2022-10-12T17:19:05.378Z,8.13
2022-10-12T17:21:27.846Z,7.80
2022-10-12T17:23:49.854Z,8.10
2022-10-12T17:26:11.364Z,8.20
2022-10-12T17:28:37.506Z,7.47
2022-10-12T17:31:07.976Z,7.90
2022-10-12T17:33:32.721Z,7.33
2022-10-12T17:35:54.202Z,6.93
2022-10-12T17:38:15.676Z,6.53
2022-10-12T17:40:39.289Z,7.03
2022-10-12T17:43:00.783Z,7.30
2022-10-12T17:45:22.254Z,7.47
2022-10-12T17:47:43.850Z,7.20
2022-10-12T17:50:05.933Z,7.47
2022-10-12T17:52:27.525Z,8.03
2022-10-12T17:54:49.035Z,8.27
2022-10-12T17:57:10.636Z,8.63
2022-10-12T17:59:32.186Z,8.53
2022-10-12T18:01:54.498Z,7.67
2022-10-12T18:04:16.190Z,7.83
2022-10-12T18:06:38.342Z,8.10
2022-10-12T18:09:01.711Z,7.83
2022-10-12T18:11:24.137Z,8.00
2022-10-12T18:13:51.552Z,8.57
2022-10-12T18:16:13.239Z,10.67
2022-10-12T18:18:34.758Z,11.10
2022-10-12T18:20:56.278Z,11.03
2022-10-12T18:23:17.829Z,12.43
2022-10-12T18:25:40.903Z,20.27
2022-10-12T18:28:02.400Z,9.33
2022-10-12T18:30:23.916Z,8.60
2022-10-12T18:32:45.402Z,10.13
2022-10-12T18:35:07.235Z,9.20
2022-10-12T18:37:28.706Z,9.50
2022-10-12T18:39:50.187Z,13.57
2022-10-12T18:42:11.676Z,16.60
2022-10-12T18:44:33.169Z,13.70
2022-10-12T18:46:54.737Z,14.10
2022-10-12T18:49:16.599Z,12.93
2022-10-12T18:51:40.818Z,10.23
2022-10-12T18:54:03.557Z,9.17
2022-10-12T18:56:25.769Z,10.50
2022-10-12T18:58:47.388Z,10.87
2022-10-12T19:01:14.649Z,12.17
2022-10-12T19:03:36.218Z,12.13
2022-10-12T19:06:09.877Z,12.80
2022-10-12T19:08:31.453Z,12.10
2022-10-12T19:10:52.954Z,11.50
2022-10-12T19:13:14.486Z,10.90
2022-10-12T19:15:37.350Z,11.50
2022-10-12T19:17:58.848Z,14.07
2022-10-12T19:20:20.417Z,13.97
2022-10-12T19:22:41.984Z,9.63
2022-10-12T19:25:03.770Z,10.30
2022-10-12T19:27:25.364Z,10.67
2022-10-12T19:29:47.242Z,9.90
2022-10-12T19:32:08.747Z,9.70
2022-10-12T19:34:30.640Z,10.10
2022-10-12T19:36:52.430Z,11.60
2022-10-12T19:39:17.226Z,10.87
2022-10-12T19:41:38.803Z,10.80
2022-10-12T19:44:01.596Z,10.80
2022-10-12T19:46:23.453Z,10.10
2022-10-12T19:48:50.092Z,9.97
2022-10-12T19:51:13.365Z,10.70
2022-10-12T19:53:35.166Z,12.50
2022-10-12T19:56:06.087Z,10.27
2022-10-12T19:58:28.766Z,9.10
2022-10-12T20:00:50.252Z,10.90
2022-10-12T20:03:11.828Z,9.53
2022-10-12T20:05:34.329Z,9.60
2022-10-12T20:07:55.895Z,9.40
2022-10-12T20:10:17.587Z,9.30
2022-10-12T20:12:39.054Z,8.63
2022-10-12T20:15:00.585Z,8.83
2022-10-12T20:17:22.064Z,9.77
2022-10-12T20:19:43.591Z,9.07
2022-10-12T20:22:05.063Z,10.90
2022-10-12T20:24:26.559Z,10.73
2022-10-12T20:26:48.065Z,10.70
2022-10-12T20:29:09.574Z,10.87
2022-10-12T20:31:31.118Z,12.13
2022-10-12T20:33:53.592Z,11.00
2022-10-12T20:36:21.453Z,13.07
2022-10-12T20:38:43.816Z,12.70
2022-10-12T20:41:10.976Z,11.07
2022-10-12T20:43:32.706Z,11.70
2022-10-12T20:45:54.190Z,13.07
2022-10-12T20:48:15.685Z,9.83
2022-10-12T20:50:37.441Z,10.27
2022-10-12T20:52:58.916Z,10.63
2022-10-12T20:55:20.893Z,10.40
2022-10-12T20:57:42.388Z,10.10
2022-10-12T21:00:05.970Z,10.17
2022-10-12T21:02:27.430Z,9.83
2022-10-12T21:04:49.539Z,10.30
2022-10-12T21:07:15.624Z,10.87
2022-10-12T21:09:37.088Z,10.10
2022-10-12T21:11:58.586Z,9.13
2022-10-12T21:14:20.174Z,8.93
2022-10-12T21:16:41.803Z,10.07
2022-10-12T21:19:03.592Z,9.53
2022-10-12T21:21:25.346Z,10.60
2022-10-12T21:23:58.306Z,10.57
2022-10-12T21:26:22.027Z,9.60
2022-10-12T21:28:44.495Z,9.73
2022-10-12T21:31:06.473Z,10.90
2022-10-12T21:33:28.440Z,10.83
2022-10-12T21:35:49.892Z,9.87
2022-10-12T21:38:11.419Z,10.40
2022-10-12T21:40:33.846Z,10.73
2022-10-12T21:42:55.321Z,12.30
2022-10-12T21:45:16.771Z,11.30
2022-10-12T21:47:38.291Z,9.93
2022-10-12T21:49:59.757Z,11.07
2022-10-12T21:52:21.488Z,11.30
2022-10-12T21:54:43.118Z,9.27
2022-10-12T21:57:04.589Z,10.40
2022-10-12T22:04:18.217Z,11.03
2022-10-12T22:06:40.370Z,10.33
2022-10-12T22:09:05.279Z,11.50
2022-10-12T22:11:28.444Z,10.80
2022-10-12T22:13:50.306Z,9.30
2022-10-12T22:16:15.057Z,9.37
2022-10-12T22:18:36.849Z,9.97
2022-10-12T22:21:02.608Z,10.50
2022-10-12T22:23:24.103Z,11.30
2022-10-12T22:25:45.564Z,12.83
2022-10-12T22:28:07.061Z,13.57
2022-10-12T22:30:28.562Z,13.67
2022-10-12T22:32:50.105Z,13.90
2022-10-12T22:35:11.629Z,10.63
2022-10-12T22:37:33.116Z,11.30
2022-10-12T22:39:54.556Z,10.80
2022-10-12T22:42:16.678Z,10.10
2022-10-12T22:44:38.438Z,11.57
2022-10-12T22:46:59.942Z,11.67
2022-10-12T22:49:21.514Z,12.13
2022-10-12T22:51:43.039Z,11.47
2022-10-12T22:54:05.393Z,11.43
2022-10-12T22:56:27.080Z,11.97
2022-10-12T22:58:54.176Z,11.93
2022-10-12T23:01:17.584Z,11.57
2022-10-12T23:03:39.704Z,11.37
2022-10-12T23:06:01.171Z,11.27
2022-10-12T23:08:22.811Z,11.70
2022-10-12T23:10:44.290Z,11.63
2022-10-12T23:13:05.790Z,10.97
2022-10-12T23:15:27.241Z,10.60
2022-10-12T23:17:48.717Z,12.03
2022-10-12T23:20:10.518Z,13.57
2022-10-12T23:22:32.224Z,14.00
2022-10-12T23:24:53.784Z,12.57
2022-10-12T23:27:15.467Z,12.67
2022-10-12T23:29:36.926Z,11.87
2022-10-12T23:31:58.394Z,10.73
2022-10-12T23:34:19.846Z,10.40
2022-10-12T23:36:41.417Z,10.97
2022-10-12T23:39:05.322Z,11.67
2022-10-12T23:41:26.911Z,11.47
2022-10-12T23:43:48.433Z,12.17
2022-10-12T23:46:11.626Z,11.13
2022-10-12T23:48:33.374Z,10.33
2022-10-12T23:50:54.985Z,11.30
2022-10-12T23:53:16.461Z,12.00
2022-10-12T23:55:37.932Z,10.60
2022-10-12T23:57:59.475Z,11.27
